createdAt,value
2017-04-09T00:00:33.885Z,6.90
2017-04-09T00:01:32.811Z,7.00
2017-04-09T00:02:31.980Z,7.00
2017-04-09T00:03:30.917Z,7.28
2017-04-09T00:04:30.619Z,6.87
2017-04-09T00:05:30.312Z,8.25
2017-04-09T00:06:30.015Z,7.60
2017-04-09T00:07:29.676Z,7.30
2017-04-09T00:08:28.757Z,7.03
2017-04-09T00:09:27.848Z,6.50
2017-04-09T00:10:26.824Z,7.48
2017-04-09T00:11:25.760Z,7.22
2017-04-09T00:12:24.701Z,7.63
2017-04-09T00:13:23.637Z,7.52
2017-04-09T00:14:22.535Z,6.98
2017-04-09T00:15:21.473Z,7.05
2017-04-09T00:16:21.124Z,7.58
2017-04-09T00:17:19.999Z,7.30
2017-04-09T00:18:18.939Z,7.15
2017-04-09T00:19:17.880Z,7.33
2017-04-09T00:20:16.803Z,7.78
2017-04-09T00:21:15.776Z,8.12
2017-04-09T00:22:15.034Z,7.36
2017-04-09T00:23:13.940Z,7.77
2017-04-09T00:24:12.851Z,7.45
2017-04-09T00:25:11.883Z,7.48
2017-04-09T00:26:10.796Z,8.28
2017-04-09T00:27:10.476Z,7.92
2017-04-09T00:28:10.158Z,8.05
2017-04-09T00:29:09.091Z,7.98
2017-04-09T00:30:08.047Z,7.92
2017-04-09T00:31:07.700Z,7.97
2017-04-09T00:32:06.605Z,8.33
2017-04-09T00:33:05.524Z,8.08
2017-04-09T00:34:04.468Z,7.08
2017-04-09T00:35:03.383Z,7.93
2017-04-09T00:36:02.322Z,7.55
2017-04-09T00:37:01.263Z,8.77
2017-04-09T00:38:00.193Z,8.27
2017-04-09T00:38:59.111Z,8.77
2017-04-09T00:39:58.019Z,8.35
2017-04-09T00:40:56.920Z,8.80
2017-04-09T00:41:55.849Z,7.70
2017-04-09T00:42:54.816Z,8.45
2017-04-09T00:43:54.472Z,7.80
2017-04-09T00:44:53.479Z,8.55
2017-04-09T00:45:52.428Z,8.65
2017-04-09T00:46:51.379Z,8.93
2017-04-09T00:47:50.301Z,9.42
2017-04-09T00:48:49.212Z,8.60
2017-04-09T00:49:48.119Z,9.43
2017-04-09T00:50:47.008Z,9.53
2017-04-09T00:51:46.038Z,10.40
2017-04-09T00:52:44.961Z,9.35
2017-04-09T00:53:44.628Z,10.18
2017-04-09T00:54:43.544Z,9.78
2017-04-09T00:55:42.466Z,10.47
2017-04-09T00:56:41.392Z,11.00
2017-04-09T00:57:41.051Z,11.42
2017-04-09T00:58:40.047Z,11.37
2017-04-09T00:59:39.040Z,11.77
2017-04-09T01:00:37.975Z,10.67
2017-04-09T01:01:36.894Z,11.38
2017-04-09T01:02:35.844Z,11.02
2017-04-09T01:03:34.741Z,11.67
2017-04-09T01:04:33.692Z,11.52
2017-04-09T01:05:32.708Z,11.98
2017-04-09T01:06:31.622Z,12.50
2017-04-09T01:07:31.264Z,12.52
2017-04-09T01:08:30.396Z,12.55
2017-04-09T01:09:30.085Z,12.75
2017-04-09T01:10:29.012Z,12.45
2017-04-09T01:11:27.944Z,12.42
2017-04-09T01:12:26.854Z,12.52
2017-04-09T01:13:26.499Z,12.08
2017-04-09T01:14:25.396Z,13.08
2017-04-09T01:15:24.327Z,11.50
2017-04-09T01:16:23.991Z,12.20
2017-04-09T01:17:22.956Z,13.07
2017-04-09T01:18:21.865Z,12.87
2017-04-09T01:19:21.508Z,13.50
2017-04-09T01:20:20.468Z,13.12
2017-04-09T01:21:19.390Z,12.45
2017-04-09T01:22:18.280Z,12.22
2017-04-09T01:23:17.276Z,12.00
2017-04-09T01:24:16.545Z,11.75
2017-04-09T01:25:15.531Z,11.83
2017-04-09T01:26:14.424Z,11.38
2017-04-09T01:27:13.324Z,11.52
2017-04-09T01:28:13.000Z,12.77
2017-04-09T01:29:11.931Z,14.12
2017-04-09T01:30:10.861Z,12.87
2017-04-09T01:31:09.856Z,13.47
2017-04-09T01:32:08.870Z,12.87
2017-04-09T01:33:08.610Z,13.17
2017-04-09T01:34:07.550Z,15.17
2017-04-09T01:35:07.292Z,17.30
2017-04-09T01:36:06.296Z,17.10
2017-04-09T01:37:05.200Z,17.80
2017-04-09T01:38:05.007Z,18.25
2017-04-09T01:39:05.329Z,18.45
2017-04-09T01:40:04.996Z,17.83
2017-04-09T01:41:04.333Z,18.38
2017-04-09T01:42:03.263Z,18.47
2017-04-09T01:43:02.191Z,17.08
2017-04-09T01:44:01.097Z,17.72
2017-04-09T01:45:00.058Z,20.45
2017-04-09T01:45:59.004Z,24.57
2017-04-09T01:46:58.712Z,21.05
2017-04-09T01:47:58.365Z,19.82
2017-04-09T01:48:57.313Z,19.90
2017-04-09T01:49:56.248Z,20.97
2017-04-09T01:50:55.209Z,21.73
2017-04-09T01:51:54.145Z,18.42
2017-04-09T01:52:53.823Z,17.70
2017-04-09T01:53:52.792Z,16.80
2017-04-09T01:54:51.700Z,17.03
2017-04-09T01:55:51.419Z,17.65
2017-04-09T01:56:50.334Z,17.27
2017-04-09T01:57:49.262Z,17.52
2017-04-09T01:58:48.928Z,17.52
2017-04-09T01:59:47.868Z,17.48
2017-04-09T02:00:46.810Z,17.42
2017-04-09T02:01:45.730Z,16.45
2017-04-09T02:02:44.640Z,18.18
2017-04-09T02:03:43.580Z,18.13
2017-04-09T02:04:43.300Z,19.30
2017-04-09T02:05:42.236Z,17.48
2017-04-09T02:06:41.945Z,18.20
2017-04-09T02:07:41.616Z,19.50
2017-04-09T02:08:40.528Z,19.25
2017-04-09T02:09:40.298Z,19.53
2017-04-09T02:10:39.288Z,19.30
2017-04-09T02:11:38.233Z,20.65
2017-04-09T02:12:37.144Z,21.50
2017-04-09T02:13:36.044Z,21.57
2017-04-09T02:14:35.706Z,20.08
2017-04-09T02:15:34.685Z,23.15
2017-04-09T02:16:33.617Z,21.83
2017-04-09T02:17:33.253Z,21.87
2017-04-09T02:18:32.144Z,22.55
2017-04-09T02:19:31.052Z,22.40
2017-04-09T02:20:30.013Z,23.22
2017-04-09T02:21:28.920Z,24.95
2017-04-09T02:22:27.847Z,25.40
2017-04-09T02:23:26.774Z,25.40
2017-04-09T02:24:25.707Z,25.10
2017-04-09T02:25:24.620Z,24.33
2017-04-09T02:26:23.627Z,25.05
2017-04-09T02:27:22.544Z,26.37
2017-04-09T02:28:21.549Z,25.33
2017-04-09T02:29:20.471Z,27.68
2017-04-09T02:30:19.432Z,27.88
2017-04-09T02:31:18.370Z,26.55
2017-04-09T02:32:17.316Z,26.70
2017-04-09T02:33:16.248Z,26.08
2017-04-09T02:34:15.218Z,25.77
2017-04-09T02:35:14.173Z,25.37
2017-04-09T02:36:13.843Z,26.60
2017-04-09T02:37:12.788Z,26.10
2017-04-09T02:38:11.710Z,25.87
2017-04-09T02:39:10.835Z,26.20
2017-04-09T02:40:10.570Z,25.07
2017-04-09T02:41:09.491Z,25.47
2017-04-09T02:42:08.431Z,25.75
2017-04-09T02:43:07.337Z,26.43
2017-04-09T02:44:06.307Z,26.85
2017-04-09T02:45:05.231Z,27.08
2017-04-09T02:46:04.922Z,25.33
2017-04-09T02:47:04.575Z,27.10
2017-04-09T02:48:03.503Z,27.38
2017-04-09T02:49:03.168Z,26.78
2017-04-09T02:50:02.095Z,26.32
2017-04-09T02:51:01.728Z,26.87
2017-04-09T02:52:00.701Z,25.78
2017-04-09T02:52:59.612Z,27.33
2017-04-09T02:53:58.525Z,28.40
2017-04-09T02:54:58.217Z,28.80
2017-04-09T02:55:57.152Z,30.60
2017-04-09T02:56:56.051Z,29.32
2017-04-09T02:57:54.975Z,31.15
2017-04-09T02:58:54.627Z,32.13
2017-04-09T02:59:53.535Z,30.92
2017-04-09T03:00:53.363Z,28.48
2017-04-09T03:01:53.013Z,31.42
2017-04-09T03:02:51.925Z,31.45
2017-04-09T03:03:51.617Z,30.57
2017-04-09T03:04:50.527Z,29.05
2017-04-09T03:05:49.432Z,30.40
2017-04-09T03:06:48.373Z,32.15
2017-04-09T03:07:48.140Z,30.82
2017-04-09T03:08:47.092Z,29.23
2017-04-09T03:09:46.031Z,29.92
2017-04-09T03:10:45.735Z,29.73
2017-04-09T03:11:45.427Z,28.78
2017-04-09T03:12:44.371Z,28.78
2017-04-09T03:13:43.300Z,32.00
2017-04-09T03:14:42.983Z,33.02
2017-04-09T03:15:41.916Z,30.85
2017-04-09T03:16:40.821Z,31.12
2017-04-09T03:17:39.777Z,31.57
2017-04-09T03:18:38.716Z,31.63
2017-04-09T03:19:38.389Z,31.73
2017-04-09T03:20:37.321Z,31.97
2017-04-09T03:21:36.260Z,31.50
2017-04-09T03:22:35.209Z,32.53
2017-04-09T03:23:34.169Z,31.57
2017-04-09T03:24:33.107Z,32.70
2017-04-09T03:25:32.097Z,32.08
2017-04-09T03:26:31.037Z,29.87
2017-04-09T03:27:29.968Z,31.58
2017-04-09T03:28:29.627Z,30.97
2017-04-09T03:29:28.620Z,33.88
2017-04-09T03:30:27.553Z,35.42
2017-04-09T03:31:27.303Z,34.55
2017-04-09T03:32:26.230Z,33.53
2017-04-09T03:33:25.174Z,32.50
2017-04-09T03:34:24.111Z,32.87
2017-04-09T03:35:23.129Z,29.03
2017-04-09T03:36:22.103Z,31.78
2017-04-09T03:37:21.051Z,30.82
2017-04-09T03:38:19.973Z,30.13
2017-04-09T03:39:19.266Z,31.07
2017-04-09T03:40:18.204Z,29.82
2017-04-09T03:41:17.135Z,32.77
2017-04-09T03:42:16.071Z,30.43
2017-04-09T03:43:14.972Z,30.45
2017-04-09T03:44:13.871Z,30.15
2017-04-09T03:45:12.854Z,32.15
2017-04-09T03:46:11.816Z,29.62
2017-04-09T03:47:10.742Z,31.63
2017-04-09T03:48:09.665Z,31.85
2017-04-09T03:49:08.606Z,32.05
2017-04-09T03:50:08.297Z,31.98
2017-04-09T03:51:08.062Z,33.00
2017-04-09T03:52:06.972Z,32.42
2017-04-09T03:53:05.915Z,34.27
2017-04-09T03:54:04.823Z,33.93
2017-04-09T03:55:04.390Z,33.10
2017-04-09T03:56:03.341Z,33.37
2017-04-09T03:57:03.038Z,34.78
2017-04-09T03:58:02.707Z,36.05
2017-04-09T03:59:01.627Z,34.53
2017-04-09T04:00:00.584Z,33.00
2017-04-09T04:00:59.500Z,33.90
2017-04-09T04:01:58.420Z,32.73
2017-04-09T04:02:57.385Z,32.03
2017-04-09T04:03:56.299Z,30.28
2017-04-09T04:04:55.264Z,31.10
2017-04-09T04:05:54.223Z,30.73
2017-04-09T04:06:53.147Z,31.00
2017-04-09T04:07:52.068Z,30.15
2017-04-09T04:08:51.092Z,29.80
2017-04-09T04:09:50.020Z,30.43
2017-04-09T04:10:49.681Z,29.88
2017-04-09T04:11:48.603Z,29.57
2017-04-09T04:12:48.265Z,32.90
2017-04-09T04:13:47.221Z,32.22
2017-04-09T04:14:46.160Z,32.17
2017-04-09T04:15:45.808Z,31.60
2017-04-09T04:16:47.028Z,32.05
2017-04-09T04:17:45.952Z,28.60
2017-04-09T04:18:44.915Z,30.93
2017-04-09T04:19:43.857Z,30.77
2017-04-09T04:20:42.788Z,29.40
2017-04-09T04:21:41.697Z,32.78
2017-04-09T04:22:41.348Z,30.92
2017-04-09T04:23:40.245Z,30.67
2017-04-09T04:24:39.232Z,30.75
2017-04-09T04:25:38.524Z,32.62
2017-04-09T04:26:37.475Z,30.38
2017-04-09T04:27:36.408Z,29.97
2017-04-09T04:28:35.348Z,29.18
2017-04-09T04:29:34.266Z,31.18
2017-04-09T04:30:33.943Z,30.33
2017-04-09T04:31:33.237Z,31.15
2017-04-09T04:32:32.195Z,31.98
2017-04-09T04:33:31.113Z,29.38
2017-04-09T04:34:30.833Z,28.62
2017-04-09T04:35:30.559Z,29.42
2017-04-09T04:36:29.503Z,30.67
2017-04-09T04:37:29.190Z,30.02
2017-04-09T04:38:28.900Z,30.53
2017-04-09T04:39:28.573Z,31.52
2017-04-09T04:40:27.502Z,29.28
2017-04-09T04:41:26.439Z,31.10
2017-04-09T04:42:25.356Z,32.38
2017-04-09T04:43:24.272Z,29.65
2017-04-09T04:44:23.206Z,28.83
2017-04-09T04:45:22.883Z,26.78
2017-04-09T04:46:21.804Z,28.62
2017-04-09T04:47:20.731Z,26.47
2017-04-09T04:48:19.648Z,27.65
2017-04-09T04:49:19.316Z,25.75
2017-04-09T04:50:18.251Z,26.10
2017-04-09T04:51:17.271Z,25.67
2017-04-09T04:52:16.229Z,25.73
2017-04-09T04:53:15.156Z,25.30
2017-04-09T04:54:14.053Z,26.30
2017-04-09T04:55:13.728Z,26.20
2017-04-09T04:56:12.670Z,25.30
2017-04-09T04:57:11.609Z,26.07
2017-04-09T04:58:10.549Z,26.60
2017-04-09T04:59:09.468Z,25.95
2017-04-09T05:00:09.146Z,26.88
2017-04-09T05:01:08.120Z,26.25
2017-04-09T05:02:07.077Z,25.55
2017-04-09T05:03:06.098Z,24.78
2017-04-09T05:04:05.001Z,24.48
2017-04-09T05:05:03.976Z,24.94
2017-04-09T05:06:03.748Z,27.03
2017-04-09T05:07:02.667Z,27.32
2017-04-09T05:08:02.361Z,24.70
2017-04-09T05:09:02.024Z,26.02
2017-04-09T05:10:01.020Z,25.63
2017-04-09T05:11:00.028Z,23.05
2017-04-09T05:11:59.688Z,24.68
2017-04-09T05:12:58.603Z,27.00
2017-04-09T05:13:58.275Z,25.87
2017-04-09T05:14:57.193Z,26.00
2017-04-09T05:15:56.887Z,25.70
2017-04-09T05:16:56.547Z,27.88
2017-04-09T05:17:55.501Z,25.43
2017-04-09T05:18:54.459Z,27.07
2017-04-09T05:19:54.142Z,24.53
2017-04-09T05:20:53.043Z,25.70
2017-04-09T05:21:52.692Z,28.85
2017-04-09T05:22:51.607Z,28.35
2017-04-09T05:23:51.263Z,30.92
2017-04-09T05:24:50.171Z,30.64
2017-04-09T05:25:49.121Z,31.67
2017-04-09T05:26:48.051Z,32.40
2017-04-09T05:27:47.710Z,32.90
2017-04-09T05:28:46.632Z,32.63
2017-04-09T05:29:46.279Z,32.00
2017-04-09T05:30:45.204Z,31.80
2017-04-09T05:31:44.895Z,32.12
2017-04-09T05:32:43.831Z,32.28
2017-04-09T05:33:42.724Z,32.05
2017-04-09T05:34:41.621Z,32.70
2017-04-09T05:35:40.519Z,35.62
2017-04-09T05:36:40.180Z,34.80
2017-04-09T05:37:39.231Z,33.10
2017-04-09T05:38:38.204Z,34.53
2017-04-09T05:39:37.299Z,37.35
2017-04-09T05:40:36.215Z,36.68
2017-04-09T05:41:35.146Z,37.32
2017-04-09T05:42:34.787Z,36.42
2017-04-09T05:43:33.840Z,35.23
2017-04-09T05:44:32.819Z,34.22
2017-04-09T05:45:32.464Z,35.10
2017-04-09T05:46:31.370Z,35.15
2017-04-09T05:47:30.323Z,35.85
2017-04-09T05:48:29.233Z,34.75
2017-04-09T05:49:28.619Z,34.85
2017-04-09T05:50:27.918Z,34.50
2017-04-09T05:51:27.191Z,34.30
2017-04-09T05:52:26.570Z,35.40
2017-04-09T05:53:25.504Z,35.28
2017-04-09T05:54:25.185Z,33.50
2017-04-09T05:55:24.861Z,34.07
2017-04-09T05:56:23.781Z,35.98
2017-04-09T05:57:23.456Z,35.40
2017-04-09T05:58:22.381Z,35.73
2017-04-09T05:59:21.301Z,35.02
2017-04-09T06:00:20.222Z,36.13
2017-04-09T06:01:19.903Z,39.47
2017-04-09T06:02:19.567Z,39.03
2017-04-09T06:03:18.510Z,37.10
2017-04-09T06:04:17.414Z,37.60
2017-04-09T06:05:16.336Z,38.00
2017-04-09T06:06:15.252Z,39.63
2017-04-09T06:07:14.268Z,40.98
2017-04-09T06:08:13.215Z,38.90
2017-04-09T06:09:12.178Z,38.43
2017-04-09T06:10:11.943Z,38.57
2017-04-09T06:11:10.851Z,37.98
2017-04-09T06:12:10.520Z,38.35
2017-04-09T06:13:09.463Z,36.20
2017-04-09T06:14:09.341Z,35.48
2017-04-09T06:15:09.004Z,36.07
2017-04-09T06:16:07.915Z,34.50
2017-04-09T06:17:07.572Z,33.33
2017-04-09T06:18:06.499Z,34.28
2017-04-09T06:19:06.171Z,33.43
2017-04-09T06:20:05.084Z,33.80
2017-04-09T06:21:04.748Z,33.40
2017-04-09T06:22:03.656Z,29.48
2017-04-09T06:23:03.361Z,31.78
2017-04-09T06:24:03.037Z,29.13
2017-04-09T06:25:01.981Z,31.00
2017-04-09T06:26:00.900Z,31.00
2017-04-09T06:27:00.056Z,30.18
2017-04-09T06:27:58.977Z,30.07
2017-04-09T06:28:58.636Z,29.68
2017-04-09T06:29:57.563Z,29.15
2017-04-09T06:30:57.240Z,27.50
2017-04-09T06:32:02.984Z,27.55
2017-04-09T06:33:01.956Z,27.82
2017-04-09T06:34:00.847Z,28.15
2017-04-09T06:34:59.756Z,28.67
2017-04-09T06:35:59.404Z,26.27
2017-04-09T06:36:58.304Z,26.42
2017-04-09T06:37:57.215Z,26.60
2017-04-09T06:38:56.887Z,26.08
2017-04-09T06:39:55.986Z,25.97
2017-04-09T06:40:55.624Z,24.00
2017-04-09T06:41:54.547Z,24.42
2017-04-09T06:42:53.516Z,23.62
2017-04-09T06:43:52.474Z,23.70
2017-04-09T06:44:51.408Z,24.82
2017-04-09T06:45:51.078Z,23.72
2017-04-09T06:46:50.011Z,23.98
2017-04-09T06:47:49.903Z,23.18
2017-04-09T06:48:49.580Z,24.62
2017-04-09T06:49:48.514Z,24.57
2017-04-09T06:50:47.472Z,24.22
2017-04-09T06:51:47.216Z,22.47
2017-04-09T06:52:46.164Z,22.13
2017-04-09T06:53:45.199Z,21.95
2017-04-09T06:54:44.163Z,22.58
2017-04-09T06:55:43.095Z,20.82
2017-04-09T06:56:42.769Z,20.52
2017-04-09T06:57:41.691Z,21.33
2017-04-09T06:58:40.600Z,21.02
2017-04-09T06:59:39.540Z,20.53
2017-04-09T07:00:39.224Z,20.72
2017-04-09T07:01:38.919Z,19.90
2017-04-09T07:02:44.450Z,20.50
2017-04-09T07:03:43.381Z,20.70
2017-04-09T07:04:42.333Z,19.93
2017-04-09T07:05:41.992Z,21.33
2017-04-09T07:06:40.900Z,20.45
2017-04-09T07:07:39.826Z,20.02
2017-04-09T07:08:38.759Z,20.62
2017-04-09T07:09:37.732Z,20.52
2017-04-09T07:10:36.671Z,19.70
2017-04-09T07:11:35.611Z,19.32
2017-04-09T07:12:35.281Z,20.45
2017-04-09T07:13:34.231Z,19.45
2017-04-09T07:14:33.188Z,19.77
2017-04-09T07:15:32.836Z,18.90
2017-04-09T07:16:31.813Z,19.42
2017-04-09T07:17:30.818Z,19.80
2017-04-09T07:18:29.777Z,19.30
2017-04-09T07:19:28.696Z,18.88
2017-04-09T07:20:27.660Z,18.74
2017-04-09T07:21:26.583Z,18.45
2017-04-09T07:22:25.619Z,17.67
2017-04-09T07:23:24.527Z,17.23
2017-04-09T07:24:24.276Z,16.77
2017-04-09T07:25:23.168Z,16.12
2017-04-09T07:26:22.088Z,17.38
2017-04-09T07:27:20.991Z,16.48
2017-04-09T07:28:20.665Z,17.18
2017-04-09T07:29:20.324Z,16.40
2017-04-09T07:30:19.247Z,17.05
2017-04-09T07:31:18.903Z,17.77
2017-04-09T07:32:17.935Z,16.55
2017-04-09T07:33:17.615Z,16.88
2017-04-09T07:34:16.565Z,16.45
2017-04-09T07:35:15.514Z,17.35
2017-04-09T07:36:15.211Z,16.25
2017-04-09T07:37:14.167Z,17.00
2017-04-09T07:38:13.131Z,17.20
2017-04-09T07:39:12.044Z,16.80
2017-04-09T07:40:11.722Z,17.52
2017-04-09T07:41:10.661Z,17.65
2017-04-09T07:42:09.670Z,17.65
2017-04-09T07:43:08.610Z,18.18
2017-04-09T07:44:07.614Z,17.93
2017-04-09T07:45:06.571Z,17.55
2017-04-09T07:46:05.531Z,18.05
2017-04-09T07:47:05.233Z,18.30
2017-04-09T07:48:04.935Z,17.68
2017-04-09T07:49:04.606Z,18.18
2017-04-09T07:50:03.532Z,18.18
2017-04-09T07:51:02.492Z,18.38
2017-04-09T07:52:02.216Z,18.57
2017-04-09T07:53:01.168Z,18.88
2017-04-09T07:54:00.852Z,19.33
2017-04-09T07:55:00.135Z,18.70
2017-04-09T07:55:59.176Z,19.12
2017-04-09T07:56:58.135Z,18.60
2017-04-09T07:57:57.126Z,19.47
2017-04-09T07:58:56.240Z,18.55
2017-04-09T07:59:55.376Z,19.07
2017-04-09T08:00:55.069Z,18.70
2017-04-09T08:01:54.044Z,19.90
2017-04-09T08:02:52.964Z,18.50
2017-04-09T08:03:51.904Z,19.37
2017-04-09T08:04:50.828Z,18.12
2017-04-09T08:05:49.752Z,19.35
2017-04-09T08:06:48.680Z,19.17
2017-04-09T08:07:48.386Z,19.55
2017-04-09T08:08:47.423Z,18.17
2017-04-09T08:09:46.509Z,18.15
2017-04-09T08:10:45.439Z,18.78
2017-04-09T08:11:44.377Z,18.78
2017-04-09T08:12:43.311Z,18.35
2017-04-09T08:13:42.239Z,18.83
2017-04-09T08:14:41.597Z,18.03
2017-04-09T08:15:40.539Z,18.48
2017-04-09T08:16:40.179Z,18.52
2017-04-09T08:17:39.153Z,18.47
2017-04-09T08:18:38.084Z,18.73
2017-04-09T08:19:38.832Z,19.35
2017-04-09T08:20:37.796Z,18.70
2017-04-09T08:21:36.735Z,18.97
2017-04-09T08:22:35.645Z,18.30
2017-04-09T08:23:34.559Z,18.33
2017-04-09T08:24:33.460Z,18.13
2017-04-09T08:25:34.108Z,17.23
2017-04-09T08:26:35.159Z,17.50
2017-04-09T08:27:36.268Z,17.85
2017-04-09T08:28:36.902Z,17.13
2017-04-09T08:29:38.001Z,16.80
2017-04-09T08:30:38.487Z,17.60
2017-04-09T08:31:39.172Z,17.18
2017-04-09T08:32:39.895Z,17.45
2017-04-09T08:33:41.265Z,16.70
2017-04-09T08:34:42.483Z,15.73
2017-04-09T08:35:43.873Z,15.78
2017-04-09T08:36:44.471Z,15.47
2017-04-09T08:37:44.637Z,14.95
2017-04-09T08:38:45.260Z,15.97
2017-04-09T08:39:45.162Z,14.92
2017-04-09T08:40:46.345Z,15.00
2017-04-09T08:41:46.746Z,13.97
2017-04-09T08:42:46.626Z,14.42
2017-04-09T08:43:47.872Z,14.45
2017-04-09T08:44:46.878Z,15.20
2017-04-09T08:45:45.804Z,15.00
2017-04-09T08:46:44.763Z,15.18
2017-04-09T08:47:43.724Z,14.83
2017-04-09T08:48:43.403Z,14.70
2017-04-09T08:49:42.752Z,14.63
2017-04-09T08:50:41.729Z,15.07
2017-04-09T08:51:40.655Z,15.65
2017-04-09T08:52:39.580Z,15.03
2017-04-09T08:53:38.500Z,15.95
2017-04-09T08:54:37.433Z,15.07
2017-04-09T08:55:36.383Z,15.47
2017-04-09T08:56:35.364Z,16.67
2017-04-09T08:57:34.287Z,15.22
2017-04-09T08:58:33.214Z,15.97
2017-04-09T08:59:32.146Z,15.64
2017-04-09T09:00:31.081Z,17.05
2017-04-09T09:01:30.811Z,16.18
2017-04-09T09:02:30.488Z,15.50
2017-04-09T09:03:29.437Z,15.58
2017-04-09T09:04:28.416Z,15.38
2017-04-09T09:05:27.348Z,15.45
2017-04-09T09:06:27.083Z,15.70
2017-04-09T09:07:26.113Z,15.12
2017-04-09T09:08:25.059Z,15.80
2017-04-09T09:09:24.004Z,15.08
2017-04-09T09:10:23.035Z,15.53
2017-04-09T09:11:22.034Z,15.63
2017-04-09T09:12:20.972Z,15.90
2017-04-09T09:13:20.201Z,16.13
2017-04-09T09:14:20.557Z,15.45
2017-04-09T09:15:19.513Z,15.05
2017-04-09T09:16:18.520Z,15.97
2017-04-09T09:17:17.461Z,15.25
2017-04-09T09:18:16.415Z,15.05
2017-04-09T09:19:15.368Z,15.30
2017-04-09T09:20:14.310Z,16.38
2017-04-09T09:21:13.330Z,15.65
2017-04-09T09:22:12.998Z,15.42
2017-04-09T09:23:11.945Z,15.72
2017-04-09T09:24:10.937Z,15.27
2017-04-09T09:25:10.000Z,15.95
2017-04-09T09:26:08.948Z,16.16
2017-04-09T09:27:08.702Z,15.18
2017-04-09T09:28:07.641Z,14.83
2017-04-09T09:29:07.494Z,15.72
2017-04-09T09:30:06.523Z,15.58
2017-04-09T09:31:06.382Z,15.07
2017-04-09T09:32:05.315Z,15.78
2017-04-09T09:33:04.970Z,15.27
2017-04-09T09:34:04.674Z,16.30
2017-04-09T09:35:03.671Z,16.05
2017-04-09T09:36:02.971Z,15.48
2017-04-09T09:37:02.735Z,15.85
2017-04-09T09:38:01.667Z,15.80
2017-04-09T09:39:00.594Z,15.03
2017-04-09T09:39:59.593Z,15.63
2017-04-09T09:40:58.545Z,14.53
2017-04-09T09:41:57.575Z,14.73
2017-04-09T09:42:57.348Z,15.07
2017-04-09T09:43:56.280Z,15.17
2017-04-09T09:44:55.251Z,15.88
2017-04-09T09:45:55.009Z,16.73
2017-04-09T09:46:53.971Z,15.58
2017-04-09T09:47:52.952Z,15.48
2017-04-09T09:48:51.974Z,15.00
2017-04-09T09:49:51.179Z,14.03
2017-04-09T09:50:51.380Z,15.37
2017-04-09T09:51:50.790Z,15.60
2017-04-09T09:52:49.821Z,15.00
2017-04-09T09:53:48.804Z,14.10
2017-04-09T09:54:47.712Z,15.32
2017-04-09T09:55:46.651Z,15.55
2017-04-09T09:56:45.607Z,15.92
2017-04-09T09:57:44.681Z,15.00
2017-04-09T09:58:44.399Z,14.83
2017-04-09T09:59:43.732Z,15.60
2017-04-09T10:00:42.683Z,15.42
2017-04-09T10:01:41.628Z,15.55
2017-04-09T10:02:41.299Z,15.57
2017-04-09T10:03:40.294Z,15.33
2017-04-09T10:04:39.243Z,15.07
2017-04-09T10:05:38.224Z,15.65
2017-04-09T10:06:37.182Z,14.47
2017-04-09T10:07:36.127Z,14.48
2017-04-09T10:08:35.233Z,14.75
2017-04-09T10:09:34.956Z,14.38
2017-04-09T10:10:33.876Z,14.25
2017-04-09T10:11:32.848Z,14.58
2017-04-09T10:12:31.856Z,13.78
2017-04-09T10:13:30.941Z,14.38
2017-04-09T10:14:30.028Z,14.80
2017-04-09T10:15:28.980Z,15.52
2017-04-09T10:16:27.922Z,15.88
2017-04-09T10:17:26.887Z,16.03
2017-04-09T10:18:26.545Z,15.75
2017-04-09T10:19:25.452Z,15.23
2017-04-09T10:20:24.622Z,14.77
2017-04-09T10:21:24.027Z,15.20
2017-04-09T10:22:23.504Z,15.77
2017-04-09T10:23:22.517Z,15.35
2017-04-09T10:24:22.192Z,15.38
2017-04-09T10:25:21.147Z,14.35
2017-04-09T10:26:20.126Z,13.90
2017-04-09T10:27:19.090Z,14.70
2017-04-09T10:28:18.044Z,14.90
2017-04-09T10:29:17.807Z,14.33
2017-04-09T10:30:16.825Z,14.72
2017-04-09T10:31:16.508Z,14.07
2017-04-09T10:32:15.815Z,15.50
2017-04-09T10:33:15.501Z,15.22
2017-04-09T10:34:14.493Z,16.65
2017-04-09T10:35:14.202Z,15.15
2017-04-09T10:36:13.899Z,15.50
2017-04-09T10:37:13.645Z,16.27
2017-04-09T10:38:12.584Z,16.15
2017-04-09T10:39:12.263Z,15.95
2017-04-09T10:40:11.238Z,16.03
2017-04-09T10:41:10.313Z,16.07
2017-04-09T10:42:09.339Z,15.20
2017-04-09T10:43:09.026Z,14.82
2017-04-09T10:44:08.728Z,14.97
2017-04-09T10:45:08.449Z,15.27
2017-04-09T10:46:07.511Z,15.50
2017-04-09T10:47:07.281Z,15.70
2017-04-09T10:48:06.280Z,16.12
2017-04-09T10:49:05.268Z,15.28
2017-04-09T10:50:04.984Z,16.05
2017-04-09T10:51:04.681Z,15.72
2017-04-09T10:52:04.448Z,15.13
2017-04-09T10:53:03.461Z,15.27
2017-04-09T10:54:03.245Z,16.25
2017-04-09T10:55:02.230Z,15.80
2017-04-09T10:56:01.504Z,16.65
2017-04-09T10:57:00.504Z,16.98
2017-04-09T10:57:59.477Z,16.92
2017-04-09T10:58:58.424Z,15.52
2017-04-09T10:59:57.413Z,16.22
2017-04-09T11:00:56.370Z,15.58
2017-04-09T11:01:55.379Z,16.82
2017-04-09T11:02:54.336Z,16.23
2017-04-09T11:03:53.384Z,15.83
2017-04-09T11:04:52.390Z,16.88
2017-04-09T11:05:52.196Z,15.60
2017-04-09T11:06:51.195Z,16.73
2017-04-09T11:07:50.235Z,16.47
2017-04-09T11:08:49.249Z,16.23
2017-04-09T11:09:48.232Z,15.30
2017-04-09T11:10:47.919Z,15.18
2017-04-09T11:11:47.622Z,15.53
2017-04-09T11:12:47.275Z,15.18
2017-04-09T11:13:46.196Z,16.03
2017-04-09T11:14:45.860Z,15.38
2017-04-09T11:15:44.787Z,14.48
2017-04-09T11:16:43.728Z,15.55
2017-04-09T11:17:42.701Z,14.90
2017-04-09T11:18:41.692Z,16.20
2017-04-09T11:19:40.722Z,16.00
2017-04-09T11:20:39.988Z,16.52
2017-04-09T11:21:46.462Z,15.42
2017-04-09T11:22:46.135Z,15.40
2017-04-09T11:23:45.105Z,15.25
2017-04-09T11:24:44.399Z,14.53
2017-04-09T11:25:43.343Z,15.50
2017-04-09T11:26:42.290Z,15.65
2017-04-09T11:27:41.989Z,15.62
2017-04-09T11:28:41.969Z,16.20
2017-04-09T11:29:40.933Z,15.08
2017-04-09T11:30:39.881Z,15.67
2017-04-09T11:31:38.956Z,16.60
2017-04-09T11:32:37.877Z,15.00
2017-04-09T11:33:36.798Z,15.46
2017-04-09T11:34:36.492Z,15.32
2017-04-09T11:35:36.160Z,15.03
2017-04-09T11:36:35.125Z,15.10
2017-04-09T11:37:34.159Z,15.73
2017-04-09T11:38:33.945Z,14.72
2017-04-09T11:39:33.659Z,15.07
2017-04-09T11:40:33.318Z,15.00
2017-04-09T11:41:32.251Z,15.38
2017-04-09T11:42:31.905Z,15.63
2017-04-09T11:43:30.841Z,16.80
2017-04-09T11:44:30.529Z,15.02
2017-04-09T11:45:30.310Z,15.47
2017-04-09T11:46:29.603Z,15.42
2017-04-09T11:47:29.330Z,16.86
2017-04-09T11:48:28.330Z,16.82
2017-04-09T11:49:27.288Z,16.15
2017-04-09T11:50:27.091Z,16.20
2017-04-09T11:51:26.809Z,16.02
2017-04-09T11:52:25.769Z,15.70
2017-04-09T11:53:25.428Z,16.12
2017-04-09T11:54:24.413Z,15.52
2017-04-09T11:55:23.409Z,14.72
2017-04-09T11:56:22.349Z,14.63
2017-04-09T11:57:21.435Z,15.28
2017-04-09T11:58:20.477Z,14.42
2017-04-09T11:59:20.181Z,15.67
2017-04-09T12:00:19.139Z,14.83
2017-04-09T12:01:18.843Z,14.58
2017-04-09T12:02:18.113Z,15.23
2017-04-09T12:03:17.236Z,15.23
2017-04-09T12:04:16.899Z,14.98
2017-04-09T12:05:15.856Z,15.03
2017-04-09T12:06:14.811Z,14.43
2017-04-09T12:07:14.509Z,14.40
2017-04-09T12:08:13.467Z,15.55
2017-04-09T12:09:12.472Z,15.35
2017-04-09T12:10:12.134Z,14.93
2017-04-09T12:11:11.122Z,14.17
2017-04-09T12:12:10.066Z,14.62
2017-04-09T12:13:08.980Z,14.20
2017-04-09T12:14:07.916Z,15.25
2017-04-09T12:15:06.987Z,15.30
2017-04-09T12:16:06.115Z,15.90
2017-04-09T12:17:05.053Z,15.50
2017-04-09T12:18:04.006Z,15.80
2017-04-09T12:19:03.692Z,15.66
2017-04-09T12:20:02.644Z,15.33
2017-04-09T12:21:01.611Z,15.28
2017-04-09T12:22:00.629Z,15.67
2017-04-09T12:22:59.768Z,14.70
2017-04-09T12:23:58.811Z,15.12
2017-04-09T12:24:57.739Z,14.80
2017-04-09T12:25:56.681Z,15.53
2017-04-09T12:26:55.608Z,14.90
2017-04-09T12:27:54.623Z,15.52
2017-04-09T12:28:53.583Z,16.92
2017-04-09T12:29:52.510Z,16.08
2017-04-09T12:30:52.354Z,15.90
2017-04-09T12:31:51.284Z,15.78
2017-04-09T12:32:50.312Z,16.00
2017-04-09T12:33:49.236Z,14.27
2017-04-09T12:34:48.160Z,15.23
2017-04-09T12:35:47.827Z,15.02
2017-04-09T12:36:46.748Z,14.30
2017-04-09T12:37:45.677Z,15.22
2017-04-09T12:38:44.643Z,14.90
2017-04-09T12:39:43.693Z,15.60
2017-04-09T12:40:43.413Z,15.77
2017-04-09T12:41:42.350Z,15.62
2017-04-09T12:42:42.017Z,15.10
2017-04-09T12:43:41.271Z,15.37
2017-04-09T12:44:40.252Z,16.22